createdAt,value
2018-04-28T00:01:52.967Z,52.00
2018-04-28T00:04:34.864Z,52.10
2018-04-28T00:07:02.399Z,52.50
2018-04-28T00:09:29.958Z,52.60
2018-04-28T00:11:58.235Z,52.80
2018-04-28T00:14:26.003Z,52.70
2018-04-28T00:17:00.129Z,53.60
2018-04-28T00:19:27.704Z,54.00
2018-04-28T00:21:55.219Z,54.40
2018-04-28T00:24:24.823Z,54.70
2018-04-28T00:26:58.184Z,55.10
2018-04-28T00:29:25.752Z,55.80
2018-04-28T00:32:04.175Z,55.60
2018-04-28T00:34:36.134Z,55.80
2018-04-28T00:37:21.238Z,56.20
2018-04-28T00:39:58.943Z,56.70
2018-04-28T00:42:44.214Z,57.40
2018-04-28T00:45:11.722Z,57.00
2018-04-28T00:47:39.962Z,57.10
2018-04-28T00:50:13.902Z,57.20
2018-04-28T00:52:41.441Z,58.00
2018-04-28T00:55:23.903Z,58.10
2018-04-28T00:58:12.212Z,58.20
2018-04-28T01:01:06.513Z,58.30
2018-04-28T01:06:32.070Z,58.60
2018-04-28T01:08:59.614Z,59.10
2018-04-28T01:11:32.094Z,59.70
2018-04-28T01:16:55.410Z,59.70
2018-04-28T01:19:31.351Z,60.00
2018-04-28T01:22:06.325Z,60.40
2018-04-28T01:24:54.434Z,60.10
2018-04-28T01:27:30.432Z,60.00
2018-04-28T01:30:16.322Z,60.00
2018-04-28T01:33:18.312Z,60.40
2018-04-28T01:36:07.581Z,60.90
2018-04-28T01:38:37.500Z,62.00
2018-04-28T01:41:14.951Z,62.00
2018-04-28T01:43:51.287Z,62.00
2018-04-28T01:46:34.611Z,62.30
2018-04-28T01:49:02.154Z,62.80
2018-04-28T01:51:32.111Z,64.40
2018-04-28T01:54:16.470Z,64.40
2018-04-28T01:56:44.790Z,64.80
2018-04-28T01:59:12.350Z,64.70
2018-04-28T02:01:42.565Z,64.90
2018-04-28T02:04:12.953Z,64.90
2018-04-28T02:06:46.006Z,65.10
2018-04-28T02:09:15.487Z,65.10
2018-04-28T02:11:48.870Z,65.50
2018-04-28T02:17:09.915Z,65.30
2018-04-28T02:19:42.995Z,65.90
2018-04-28T02:22:22.098Z,65.80
2018-04-28T02:24:55.554Z,66.30
2018-04-28T02:27:27.699Z,66.40
2018-04-28T02:30:15.955Z,67.10
2018-04-28T02:32:48.101Z,67.30
2018-04-28T02:35:29.300Z,67.70
2018-04-28T02:37:56.858Z,67.70
2018-04-28T02:43:51.263Z,67.90
2018-04-28T02:46:42.277Z,68.70
2018-04-28T02:49:12.724Z,68.70
2018-04-28T02:51:42.958Z,68.60
2018-04-28T02:54:24.806Z,68.60
2018-04-28T02:56:52.360Z,68.70
2018-04-28T02:59:20.663Z,69.00
2018-04-28T03:01:50.030Z,68.90
2018-04-28T03:04:35.110Z,69.10
2018-04-28T03:07:22.272Z,69.50
2018-04-28T03:10:04.677Z,68.70
2018-04-28T03:12:32.247Z,69.10
2018-04-28T03:15:07.323Z,70.20
2018-04-28T03:17:39.402Z,70.60
2018-04-28T03:20:09.453Z,70.60
2018-04-28T03:22:37.907Z,70.90
2018-04-28T03:25:11.225Z,70.50
2018-04-28T03:27:42.450Z,71.10
2018-04-28T03:30:09.987Z,71.50
2018-04-28T03:32:42.059Z,72.50
2018-04-28T03:35:18.226Z,72.60
2018-04-28T03:37:56.507Z,72.60
2018-04-28T03:40:25.815Z,72.50
2018-04-28T03:43:03.034Z,72.30
2018-04-28T03:45:35.507Z,72.00
2018-04-28T03:48:25.774Z,72.00
2018-04-28T03:51:08.195Z,72.90
2018-04-28T03:53:36.529Z,73.60
2018-04-28T03:56:05.766Z,73.80
2018-04-28T03:58:45.838Z,73.60
2018-04-28T04:01:25.094Z,73.60
2018-04-28T04:04:07.068Z,73.80
2018-04-28T04:06:41.278Z,80.10
2018-04-28T04:12:36.446Z,74.10
2018-04-28T04:15:07.603Z,74.60
2018-04-28T04:17:51.927Z,75.10
2018-04-28T04:20:43.188Z,81.40
2018-04-28T04:23:13.494Z,99.90
2018-04-28T04:25:46.934Z,99.90
2018-04-28T04:28:24.391Z,97.20
2018-04-28T04:31:13.627Z,99.90
2018-04-28T04:33:57.755Z,99.80
2018-04-28T04:36:33.814Z,97.00
2018-04-28T04:39:33.802Z,96.20
2018-04-28T04:42:20.114Z,96.10
2018-04-28T04:45:07.177Z,95.90
2018-04-28T04:47:41.683Z,95.80
2018-04-28T04:50:24.672Z,95.80
2018-04-28T04:53:11.896Z,96.20
2018-04-28T04:55:42.279Z,96.50
2018-04-28T04:58:12.298Z,96.60
2018-04-28T05:00:51.530Z,96.70
2018-04-28T05:03:30.899Z,96.70
2018-04-28T05:06:22.015Z,96.90
2018-04-28T05:08:59.450Z,97.10
2018-04-28T05:11:43.651Z,96.70
2018-04-28T05:14:22.783Z,96.10
2018-04-28T05:17:05.154Z,95.60
2018-04-28T05:23:06.397Z,96.60
2018-04-28T05:28:58.191Z,95.80
2018-04-28T05:31:34.281Z,95.30
2018-04-28T05:37:09.314Z,95.20
2018-04-28T05:42:39.443Z,95.00
2018-04-28T05:45:13.592Z,94.90
2018-04-28T05:47:52.918Z,94.90
2018-04-28T05:50:32.190Z,94.80
2018-04-28T05:53:05.095Z,95.00
2018-04-28T05:55:55.384Z,95.30
2018-04-28T05:58:32.499Z,95.70
2018-04-28T06:01:07.866Z,95.90
2018-04-28T06:03:51.411Z,96.40
2018-04-28T06:06:24.770Z,96.90
2018-04-28T06:08:54.699Z,98.20
2018-04-28T06:11:28.926Z,89.20
2018-04-28T06:14:13.504Z,74.90
2018-04-28T06:16:57.390Z,74.80
2018-04-28T06:20:02.588Z,74.90
2018-04-28T06:22:30.056Z,75.50
2018-04-28T06:24:57.590Z,75.70
2018-04-28T06:27:25.147Z,74.90
2018-04-28T06:29:52.707Z,74.80
2018-04-28T06:32:20.234Z,74.50
2018-04-28T06:34:47.819Z,74.50
2018-04-28T06:37:15.351Z,74.50
2018-04-28T06:39:42.891Z,74.00
2018-04-28T06:42:10.433Z,74.00
2018-04-28T06:44:37.991Z,74.30
2018-04-28T06:47:05.510Z,74.50
2018-04-28T06:49:33.080Z,75.00
2018-04-28T06:52:00.615Z,75.50
2018-04-28T06:54:28.207Z,75.40
2018-04-28T06:56:55.703Z,76.10
2018-04-28T06:59:24.091Z,77.20
2018-04-28T07:01:51.632Z,77.20
2018-04-28T07:04:29.776Z,77.70
2018-04-28T07:06:57.304Z,77.60
2018-04-28T07:09:25.588Z,77.20
2018-04-28T07:11:53.154Z,77.10
2018-04-28T07:14:20.791Z,76.20
2018-04-28T07:16:48.311Z,76.50
2018-04-28T07:19:15.863Z,76.60
2018-04-28T07:21:43.375Z,78.50
2018-04-28T07:24:15.835Z,78.90
2018-04-28T07:26:43.366Z,77.60
2018-04-28T07:29:10.882Z,77.40
2018-04-28T07:31:38.418Z,77.10
2018-04-28T07:34:06.792Z,73.90
2018-04-28T07:36:35.106Z,73.60
2018-04-28T07:39:02.603Z,73.30
2018-04-28T07:41:30.122Z,72.50
2018-04-28T07:43:57.642Z,70.30
2018-04-28T07:46:25.171Z,68.80
2018-04-28T07:48:52.707Z,67.50
2018-04-28T07:51:20.270Z,68.70
2018-04-28T07:53:47.782Z,69.80
2018-04-28T07:56:15.277Z,68.00
2018-04-28T07:58:42.824Z,66.70
2018-04-28T08:01:10.346Z,64.70
2018-04-28T08:03:37.880Z,59.70
2018-04-28T08:06:05.470Z,58.50
2018-04-28T08:08:33.730Z,57.30
2018-04-28T08:11:01.395Z,57.30
2018-04-28T08:13:28.959Z,56.80
2018-04-28T08:15:56.484Z,57.00
2018-04-28T08:18:24.035Z,56.80
2018-04-28T08:20:51.591Z,55.60
2018-04-28T08:23:19.135Z,54.50
2018-04-28T08:25:46.648Z,53.90
2018-04-28T08:28:14.200Z,54.40
2018-04-28T08:30:41.728Z,52.70
2018-04-28T08:33:09.261Z,50.60
2018-04-28T08:35:36.834Z,50.10
2018-04-28T08:38:04.342Z,50.30
2018-04-28T08:40:31.842Z,49.40
2018-04-28T08:42:59.399Z,49.60
2018-04-28T08:45:27.076Z,48.20
2018-04-28T08:47:54.536Z,49.00
2018-04-28T08:50:22.095Z,47.80
2018-04-28T08:52:49.609Z,48.60
2018-04-28T08:55:17.126Z,48.60
2018-04-28T08:57:44.787Z,48.50
2018-04-28T09:00:24.107Z,49.70
2018-04-28T09:02:51.996Z,49.70
2018-04-28T09:05:19.555Z,49.20
2018-04-28T09:07:47.070Z,49.00
2018-04-28T09:10:14.594Z,49.40
2018-04-28T09:12:42.195Z,49.70
2018-04-28T09:15:09.814Z,49.30
2018-04-28T09:17:37.334Z,49.80
2018-04-28T09:20:04.955Z,49.50
2018-04-28T09:22:32.467Z,49.50
2018-04-28T09:25:09.799Z,47.90
2018-04-28T09:27:37.329Z,48.00
2018-04-28T09:30:04.880Z,48.10
2018-04-28T09:32:32.439Z,47.60
2018-04-28T09:34:59.963Z,47.00
2018-04-28T09:37:27.500Z,46.60
2018-04-28T09:39:55.120Z,46.40
2018-04-28T09:42:22.667Z,46.50
2018-04-28T09:44:50.217Z,46.70
2018-04-28T09:47:17.735Z,46.90
2018-04-28T09:49:45.266Z,46.20
2018-04-28T09:52:12.818Z,46.60
2018-04-28T09:54:51.031Z,46.30
2018-04-28T09:57:19.372Z,46.20
2018-04-28T09:59:46.919Z,46.10
2018-04-28T10:02:18.226Z,46.60
2018-04-28T10:04:50.902Z,46.60
2018-04-28T10:07:18.411Z,47.80
2018-04-28T10:09:46.008Z,46.20
2018-04-28T10:12:13.580Z,45.40
2018-04-28T10:14:41.105Z,45.20
2018-04-28T10:17:08.658Z,44.40
2018-04-28T10:19:36.231Z,45.60
2018-04-28T10:22:03.790Z,46.20
2018-04-28T10:24:32.099Z,45.40
2018-04-28T10:26:59.699Z,45.30
2018-04-28T10:29:27.220Z,45.50
2018-04-28T10:31:54.747Z,45.70
2018-04-28T10:34:22.283Z,45.10
2018-04-28T10:36:49.823Z,44.40
2018-04-28T10:39:17.347Z,44.20
2018-04-28T10:41:44.894Z,44.20
2018-04-28T10:44:13.167Z,44.70
2018-04-28T10:46:41.567Z,45.50
2018-04-28T10:49:09.158Z,45.40
2018-04-28T10:51:36.662Z,44.50
2018-04-28T10:54:04.193Z,45.40
2018-04-28T10:56:31.754Z,45.40
2018-04-28T10:58:59.270Z,45.70
2018-04-28T11:01:27.573Z,45.40
2018-04-28T11:04:14.374Z,45.40
2018-04-28T11:06:41.870Z,44.70
2018-04-28T11:09:09.370Z,45.20
2018-04-28T11:11:36.953Z,45.10
2018-04-28T11:14:04.491Z,44.00
2018-04-28T11:16:32.017Z,46.90
2018-04-28T11:19:00.331Z,46.00
2018-04-28T11:21:27.877Z,46.00
2018-04-28T11:23:55.406Z,46.00
2018-04-28T11:26:22.915Z,46.20
2018-04-28T11:28:50.443Z,46.30
2018-04-28T11:31:18.020Z,46.90
2018-04-28T11:33:45.593Z,46.50
2018-04-28T11:36:13.167Z,45.90
2018-04-28T11:38:40.716Z,45.20
2018-04-28T11:41:08.327Z,46.00
2018-04-28T11:43:35.955Z,44.70
2018-04-28T11:46:03.483Z,44.50
2018-04-28T11:48:31.051Z,43.50
2018-04-28T11:50:58.607Z,44.20
2018-04-28T11:53:26.207Z,45.10
2018-04-28T11:55:53.774Z,45.00
2018-04-28T11:58:21.361Z,45.10
2018-04-28T12:00:48.996Z,43.90
2018-04-28T12:03:16.583Z,44.00
2018-04-28T12:05:44.214Z,44.80
2018-04-28T12:08:11.825Z,44.20
2018-04-28T12:10:39.363Z,44.00
2018-04-28T12:13:06.966Z,43.60
2018-04-28T12:15:34.539Z,43.50
2018-04-28T12:18:02.107Z,43.70
2018-04-28T12:20:29.688Z,44.50
2018-04-28T12:22:57.238Z,44.00
2018-04-28T12:25:24.822Z,43.70
2018-04-28T12:27:52.432Z,44.70
2018-04-28T12:30:20.791Z,45.20
2018-04-28T12:32:48.347Z,45.10
2018-04-28T12:35:15.947Z,45.10
2018-04-28T12:37:43.495Z,45.00
2018-04-28T12:40:11.150Z,45.90
2018-04-28T12:42:38.667Z,44.90
2018-04-28T12:45:06.313Z,44.60
2018-04-28T12:47:33.895Z,45.00
2018-04-28T12:50:01.492Z,45.30
2018-04-28T12:52:29.059Z,45.30
2018-04-28T12:54:57.380Z,45.00
2018-04-28T12:57:24.979Z,45.00
2018-04-28T12:59:53.336Z,43.60
2018-04-28T13:02:20.890Z,43.60
2018-04-28T13:04:48.503Z,43.30
2018-04-28T13:07:16.099Z,43.40
2018-04-28T13:09:43.667Z,43.10
2018-04-28T13:12:11.260Z,42.80
2018-04-28T13:14:39.590Z,42.20
2018-04-28T13:17:07.216Z,42.10
2018-04-28T13:19:34.767Z,42.00
2018-04-28T13:22:02.360Z,41.80
2018-04-28T13:24:29.927Z,42.20
2018-04-28T13:26:57.790Z,41.60
2018-04-28T13:29:25.279Z,42.00
2018-04-28T13:31:52.846Z,42.00
2018-04-28T13:34:20.457Z,42.30
2018-04-28T13:36:48.024Z,41.40
2018-04-28T13:39:15.644Z,41.80
2018-04-28T13:41:43.223Z,42.80
2018-04-28T13:44:10.835Z,42.00
2018-04-28T13:46:38.418Z,41.70
2018-04-28T13:49:06.755Z,41.20
2018-04-28T13:51:34.324Z,41.20
2018-04-28T13:54:01.906Z,42.80
2018-04-28T13:56:30.287Z,41.00
2018-04-28T13:58:58.650Z,40.40
2018-04-28T14:01:26.244Z,40.40
2018-04-28T14:03:53.794Z,30.30
2018-04-28T14:06:21.409Z,31.50
2018-04-28T14:08:48.956Z,29.20
2018-04-28T14:11:16.560Z,28.40
2018-04-28T14:13:44.149Z,27.80
2018-04-28T14:16:11.774Z,28.10
2018-04-28T14:18:39.356Z,28.50
2018-04-28T14:21:06.955Z,27.60
2018-04-28T14:23:34.514Z,27.30
2018-04-28T14:26:02.107Z,28.20
2018-04-28T14:28:29.695Z,27.90
2018-04-28T14:30:57.234Z,27.40
2018-04-28T14:33:25.613Z,27.80
2018-04-28T14:35:53.187Z,27.70
2018-04-28T14:38:20.751Z,28.10
2018-04-28T14:40:48.355Z,27.90
2018-04-28T14:43:15.964Z,28.10
2018-04-28T14:45:43.627Z,28.40
2018-04-28T14:48:11.234Z,28.20
2018-04-28T14:50:38.872Z,29.20
2018-04-28T14:53:06.416Z,29.80
2018-04-28T14:55:33.987Z,30.30
2018-04-28T14:58:01.545Z,30.40
2018-04-28T15:00:29.090Z,30.70
2018-04-28T15:02:56.669Z,31.80
2018-04-28T15:05:24.234Z,33.60
2018-04-28T15:07:51.787Z,34.20
2018-04-28T15:10:19.381Z,35.90
2018-04-28T15:12:46.947Z,37.00
2018-04-28T15:15:14.508Z,38.40
2018-04-28T15:17:42.107Z,38.70
2018-04-28T15:20:09.656Z,38.80
2018-04-28T15:22:37.219Z,38.60
2018-04-28T15:25:04.819Z,38.70
2018-04-28T15:27:32.378Z,38.70
2018-04-28T15:29:59.942Z,39.20
2018-04-28T15:32:27.524Z,38.50
2018-04-28T15:34:55.355Z,37.80
2018-04-28T15:37:22.975Z,38.20
2018-04-28T15:39:50.547Z,36.20
2018-04-28T15:42:18.098Z,36.60
2018-04-28T15:44:45.677Z,36.30
2018-04-28T15:47:13.254Z,37.30
2018-04-28T15:49:40.859Z,39.30
2018-04-28T15:52:09.236Z,39.30
2018-04-28T15:54:51.158Z,39.30
2018-04-28T15:57:18.744Z,38.90
2018-04-28T15:59:46.354Z,38.40
2018-04-28T16:02:13.959Z,39.50
2018-04-28T16:04:41.542Z,40.70
2018-04-28T16:07:09.074Z,40.80
2018-04-28T16:09:37.447Z,42.10
2018-04-28T16:12:05.035Z,41.50
2018-04-28T16:14:32.642Z,41.50
2018-04-28T16:17:00.216Z,42.10
2018-04-28T16:19:27.789Z,42.50
2018-04-28T16:21:55.446Z,42.70
2018-04-28T16:24:23.004Z,41.20
2018-04-28T16:26:50.583Z,40.60
2018-04-28T16:29:18.161Z,39.80
2018-04-28T16:31:45.783Z,38.70
2018-04-28T16:34:13.355Z,38.00
2018-04-28T16:36:40.927Z,37.80
2018-04-28T16:39:08.467Z,37.70
2018-04-28T16:41:36.052Z,37.60
2018-04-28T16:44:03.659Z,37.90
2018-04-28T16:46:31.279Z,37.10
2018-04-28T16:48:58.826Z,37.70
2018-04-28T16:51:26.443Z,38.20
2018-04-28T16:53:54.007Z,37.90
2018-04-28T16:56:21.570Z,37.60
2018-04-28T16:58:49.171Z,37.80
2018-04-28T17:01:16.903Z,38.00
2018-04-28T17:03:44.510Z,37.90
2018-04-28T17:06:12.104Z,37.80
2018-04-28T17:08:39.652Z,37.40
2018-04-28T17:11:07.207Z,37.30
2018-04-28T17:13:58.698Z,37.40
2018-04-28T17:16:26.248Z,37.70
2018-04-28T17:18:53.823Z,37.20
2018-04-28T17:21:21.399Z,37.70
2018-04-28T17:23:49.727Z,38.10
2018-04-28T17:26:17.335Z,38.10
2018-04-28T17:28:45.719Z,37.80
2018-04-28T17:31:13.305Z,37.80
2018-04-28T17:33:40.895Z,37.60
2018-04-28T17:36:08.508Z,37.20
2018-04-28T17:38:36.079Z,37.60
2018-04-28T17:41:03.639Z,37.70
2018-04-28T17:43:31.311Z,37.70
2018-04-28T17:45:58.984Z,38.70
2018-04-28T17:48:26.563Z,39.40
2018-04-28T17:50:54.153Z,40.80
2018-04-28T17:53:26.945Z,43.00
2018-04-28T17:55:54.556Z,43.30
2018-04-28T17:58:22.159Z,42.50
2018-04-28T18:00:50.492Z,40.80
2018-04-28T18:03:37.024Z,40.80
2018-04-28T18:06:04.626Z,40.20
2018-04-28T18:08:32.172Z,40.60
2018-04-28T18:10:59.845Z,41.20
2018-04-28T18:13:47.414Z,41.00
2018-04-28T18:16:14.973Z,40.90
2018-04-28T18:18:42.569Z,40.60
2018-04-28T18:21:10.955Z,41.70
2018-04-28T18:23:38.507Z,41.00
2018-04-28T18:26:06.159Z,41.50
2018-04-28T18:28:33.691Z,41.80
2018-04-28T18:31:01.295Z,41.30
2018-04-28T18:33:28.854Z,41.00
2018-04-28T18:35:56.417Z,41.70
2018-04-28T18:38:23.970Z,41.70
2018-04-28T18:40:51.561Z,41.90
2018-04-28T18:43:19.148Z,41.90
2018-04-28T18:45:46.728Z,42.40
2018-04-28T18:48:14.331Z,42.90
2018-04-28T18:50:41.981Z,42.90
2018-04-28T18:53:09.464Z,43.10
2018-04-28T18:55:37.017Z,43.00
2018-04-28T18:58:04.594Z,42.80
2018-04-28T19:00:32.156Z,43.70
2018-04-28T19:02:59.794Z,43.50
2018-04-28T19:05:27.370Z,44.00
2018-04-28T19:07:54.938Z,44.10
2018-04-28T19:10:22.530Z,44.40
2018-04-28T19:12:50.844Z,44.10
2018-04-28T19:15:18.387Z,44.10
2018-04-28T19:17:45.967Z,43.70
2018-04-28T19:20:13.519Z,42.50
2018-04-28T19:22:41.095Z,42.20
2018-04-28T19:25:13.775Z,42.30
2018-04-28T19:27:41.423Z,41.90
2018-04-28T19:30:09.036Z,41.50
2018-04-28T19:32:37.412Z,41.70
2018-04-28T19:35:20.099Z,41.50
2018-04-28T19:37:47.902Z,41.50
2018-04-28T19:40:15.462Z,41.70
2018-04-28T19:42:43.038Z,42.40
2018-04-28T19:45:10.612Z,42.30
2018-04-28T19:47:38.189Z,42.40
2018-04-28T19:50:05.759Z,42.50
2018-04-28T19:52:33.312Z,42.60
2018-04-28T19:55:00.905Z,42.90
2018-04-28T19:57:28.470Z,43.00
2018-04-28T19:59:56.076Z,42.70
2018-04-28T20:02:23.696Z,42.60
2018-04-28T20:04:52.034Z,42.30
2018-04-28T20:07:19.578Z,42.30
2018-04-28T20:09:47.215Z,42.40
2018-04-28T20:12:14.764Z,42.10
2018-04-28T20:14:42.327Z,42.30
2018-04-28T20:17:09.934Z,41.80
2018-04-28T20:19:37.535Z,41.70
2018-04-28T20:22:16.879Z,41.60
2018-04-28T20:25:03.951Z,41.00
2018-04-28T20:27:31.547Z,41.00
2018-04-28T20:29:59.912Z,40.90
2018-04-28T20:32:27.484Z,40.90
2018-04-28T20:34:55.105Z,40.90
2018-04-28T20:37:22.703Z,40.40
2018-04-28T20:39:50.290Z,40.50
2018-04-28T20:42:17.854Z,40.30
2018-04-28T20:44:45.499Z,39.60
2018-04-28T20:47:13.195Z,39.40
2018-04-28T20:49:40.794Z,39.30
2018-04-28T20:52:09.103Z,39.10
2018-04-28T20:54:36.858Z,39.10
2018-04-28T20:57:04.507Z,38.80
2018-04-28T20:59:32.055Z,38.70
2018-04-28T21:02:00.380Z,38.80
2018-04-28T21:04:27.950Z,39.40
2018-04-28T21:06:55.548Z,38.40
2018-04-28T21:09:23.111Z,38.60
2018-04-28T21:11:50.702Z,38.60
2018-04-28T21:14:18.286Z,38.90
2018-04-28T21:16:45.826Z,38.80
2018-04-28T21:19:13.414Z,39.00
2018-04-28T21:21:40.960Z,38.90
2018-04-28T21:24:08.531Z,39.00
2018-04-28T21:26:36.086Z,38.80
2018-04-28T21:29:03.660Z,38.70
2018-04-28T21:31:31.231Z,38.80
2018-04-28T21:33:58.985Z,38.80
2018-04-28T21:36:26.587Z,39.20
2018-04-28T21:38:54.135Z,39.10
2018-04-28T21:41:22.513Z,39.30
2018-04-28T21:43:50.901Z,39.60
2018-04-28T21:46:18.485Z,39.00
2018-04-28T21:48:46.044Z,39.30
2018-04-28T21:51:13.602Z,39.90
2018-04-28T21:53:41.982Z,39.60
2018-04-28T21:56:09.553Z,39.60
2018-04-28T21:58:37.115Z,39.80
2018-04-28T22:01:04.657Z,40.00
2018-04-28T22:03:32.275Z,40.10
2018-04-28T22:05:59.887Z,39.90
2018-04-28T22:08:27.507Z,40.00
2018-04-28T22:10:55.081Z,40.00
2018-04-28T22:13:22.680Z,40.00
2018-04-28T22:15:50.218Z,40.10
2018-04-28T22:18:17.770Z,39.90
2018-04-28T22:20:45.375Z,40.00
2018-04-28T22:23:12.971Z,40.10
2018-04-28T22:25:40.524Z,40.00
2018-04-28T22:28:08.891Z,39.80
2018-04-28T22:30:36.503Z,39.80
2018-04-28T22:33:04.097Z,39.80
2018-04-28T22:35:32.427Z,39.70
2018-04-28T22:38:00.087Z,39.60
2018-04-28T22:40:27.662Z,39.70
2018-04-28T22:42:55.235Z,39.80
2018-04-28T22:45:22.822Z,39.70
2018-04-28T22:47:50.414Z,39.90
2018-04-28T22:50:17.988Z,39.80
2018-04-28T22:52:45.577Z,39.70
2018-04-28T22:55:13.150Z,39.20
2018-04-28T22:57:40.695Z,39.30
2018-04-28T23:00:08.348Z,39.00
2018-04-28T23:02:35.921Z,39.00
2018-04-28T23:05:03.455Z,39.00
2018-04-28T23:07:31.018Z,39.00
2018-04-28T23:09:58.547Z,38.80
2018-04-28T23:12:26.066Z,39.00
2018-04-28T23:14:53.620Z,39.30
2018-04-28T23:17:21.134Z,39.30
2018-04-28T23:19:48.659Z,39.40
2018-04-28T23:22:17.113Z,39.40
2018-04-28T23:24:58.974Z,39.30
2018-04-28T23:27:26.509Z,38.80
2018-04-28T23:29:54.027Z,38.70
2018-04-28T23:32:21.564Z,38.80
2018-04-28T23:34:49.095Z,38.30
2018-04-28T23:37:16.610Z,38.60
2018-04-28T23:39:44.162Z,38.80
2018-04-28T23:42:11.697Z,38.70
2018-04-28T23:44:39.232Z,38.30
2018-04-28T23:47:06.730Z,39.10
2018-04-28T23:49:34.301Z,39.50
2018-04-28T23:52:02.581Z,39.30
2018-04-28T23:54:30.122Z,39.30
2018-04-28T23:56:57.654Z,39.10
2018-04-28T23:59:25.166Z,39.00
